Time;durP1;ratioP1;P1;durP2;ratioP2;P2;SDS_P1;SDS_P2;PMS_P1;PMS_P2;Temp;Humidity;BMP_temperature;BMP_pressure;BME280_temperature;BME280_humidity;BME280_pressure;Samples;Min_cycle;Max_cycle;Signal;HPM_P1;HPM_P2
2024/03/16 00:01:44;;;;;;;3.77;1.70;;;;;;;21.41;50.72;100292.30;2346536;74;50996;-80
2024/03/16 00:04:47;;;;;;;3.27;1.60;;;;;;;21.42;50.71;100297.16;2385126;74;50800;-79
2024/03/16 00:07:49;;;;;;;3.98;1.87;;;;;;;21.41;50.66;100296.34;2384170;73;50679;-78
2024/03/16 00:10:51;;;;;;;2.92;1.75;;;;;;;21.41;50.67;100292.83;2320626;74;50064;-80
2024/03/16 00:13:53;;;;;;;3.60;1.40;;;;;;;21.41;50.67;100290.95;2384582;74;50749;-80
2024/03/16 00:16:56;;;;;;;3.62;1.80;;;;;;;21.41;50.63;100296.86;2346430;74;51514;-80
2024/03/16 00:19:58;;;;;;;3.22;1.80;;;;;;;21.40;50.64;100301.42;2384684;74;50686;-79
2024/03/16 00:23:01;;;;;;;3.37;1.52;;;;;;;21.39;50.67;100294.37;2384204;74;51522;-79
2024/03/16 00:26:03;;;;;;;2.52;1.30;;;;;;;21.39;50.72;100308.35;2346937;74;52091;-79
2024/03/16 00:29:07;;;;;;;2.65;1.60;;;;;;;21.40;50.68;100303.27;2321464;74;50048;-80
2024/03/16 00:32:09;;;;;;;2.67;1.40;;;;;;;21.39;50.66;100297.06;2384964;74;51562;-80
2024/03/16 00:35:12;;;;;;;2.60;1.70;;;;;;;21.38;50.74;100299.45;2346065;74;50264;-79
2024/03/16 00:38:14;;;;;;;2.37;1.52;;;;;;;21.40;50.71;100295.19;2320185;74;51504;-80
2024/03/16 00:41:20;;;;;;;2.62;1.50;;;;;;;21.39;50.67;100293.02;2382867;74;50760;-81
2024/03/16 00:44:22;;;;;;;3.10;1.70;;;;;;;21.40;50.66;100297.39;2346266;74;51588;-81
2024/03/16 00:47:24;;;;;;;1.95;1.40;;;;;;;21.39;50.63;100301.63;2382537;74;51511;-81
2024/03/16 00:50:26;;;;;;;1.70;1.30;;;;;;;21.39;50.66;100295.72;2344477;74;49897;-81
2024/03/16 00:53:29;;;;;;;2.77;1.77;;;;;;;21.39;50.65;100288.98;2345221;74;52018;-81
2024/03/16 00:56:31;;;;;;;1.70;1.40;;;;;;;21.39;50.61;100290.86;2382189;74;50611;-80
2024/03/16 00:59:33;;;;;;;2.50;1.62;;;;;;;21.39;50.67;100289.52;2344828;74;50146;-80
2024/03/16 01:02:35;;;;;;;2.02;1.40;;;;;;;21.38;50.63;100286.00;2382645;74;50311;-81
2024/03/16 01:05:38;;;;;;;2.60;1.50;;;;;;;21.38;50.62;100278.42;2344499;74;50060;-81
2024/03/16 01:08:40;;;;;;;2.00;1.50;;;;;;;21.37;50.59;100278.91;2345052;74;50378;-81
2024/03/16 01:11:43;;;;;;;3.85;1.67;;;;;;;21.37;50.62;100281.60;2382548;74;50873;-81
2024/03/16 01:14:45;;;;;;;4.40;1.52;;;;;;;21.37;50.61;100282.95;2318357;74;51010;-81
2024/03/16 01:17:47;;;;;;;1.75;1.40;;;;;;;21.36;50.64;100284.00;2382414;74;51410;-81
2024/03/16 01:20:49;;;;;;;4.83;1.45;;;;;;;21.37;50.58;100280.78;2382494;74;50125;-81
2024/03/16 01:23:52;;;;;;;5.00;1.50;;;;;;;21.37;50.58;100288.33;2344460;74;50685;-80
2024/03/16 01:26:54;;;;;;;3.00;1.55;;;;;;;21.36;50.58;100289.38;2382832;73;50067;-81
2024/03/16 01:29:56;;;;;;;2.02;1.12;;;;;;;21.36;50.57;100289.38;2382770;74;50608;-81
2024/03/16 01:32:58;;;;;;;2.60;1.40;;;;;;;21.35;50.63;100290.44;2382636;74;51371;-81
2024/03/16 01:36:00;;;;;;;1.98;1.30;;;;;;;21.36;50.67;100296.11;2382570;74;51566;-80
2024/03/16 01:39:03;;;;;;;3.67;1.20;;;;;;;21.36;50.67;100297.45;2344719;74;51022;-80
2024/03/16 01:42:06;;;;;;;2.65;1.37;;;;;;;21.36;50.66;100291.25;2382397;74;52343;-80
2024/03/16 01:45:10;;;;;;;1.90;1.30;;;;;;;21.35;50.70;100290.44;2319274;74;51597;-80
2024/03/16 01:48:14;;;;;;;1.70;1.42;;;;;;;21.35;50.70;100286.39;2345455;74;50817;-81
2024/03/16 01:51:17;;;;;;;2.30;1.37;;;;;;;21.36;50.64;100292.08;2382401;73;51553;-81
2024/03/16 01:54:19;;;;;;;2.35;1.20;;;;;;;21.37;50.64;100290.20;2344835;74;51289;-80
2024/03/16 01:57:21;;;;;;;2.77;1.50;;;;;;;21.35;50.59;100285.05;2382248;74;51465;-80
2024/03/16 02:00:23;;;;;;;2.90;1.50;;;;;;;21.35;50.55;100287.73;2382466;74;50649;-80
2024/03/16 02:03:26;;;;;;;1.30;1.20;;;;;;;21.36;50.54;100287.22;2344653;74;50111;-81
2024/03/16 02:06:28;;;;;;;3.62;1.70;;;;;;;21.35;50.52;100294.47;2382791;74;51399;-81
2024/03/16 02:09:31;;;;;;;2.25;1.50;;;;;;;21.35;50.53;100297.66;2382635;74;51282;-81
2024/03/16 02:12:33;;;;;;;1.30;1.20;;;;;;;21.35;50.54;100292.27;2344389;74;49666;-81
2024/03/16 02:15:35;;;;;;;2.90;1.40;;;;;;;21.35;50.48;100293.62;2382654;74;50219;-81
2024/03/16 02:18:37;;;;;;;4.62;1.30;;;;;;;21.34;50.46;100295.48;2345198;74;50398;-81
2024/03/16 02:21:40;;;;;;;2.52;1.40;;;;;;;21.34;50.44;100299.52;2382607;74;50396;-81
2024/03/16 02:24:43;;;;;;;3.40;1.60;;;;;;;21.34;50.44;100294.14;2382427;74;50620;-81
2024/03/16 02:27:47;;;;;;;5.05;1.42;;;;;;;21.34;50.48;100297.36;2344294;74;51056;-81
2024/03/16 02:30:49;;;;;;;3.62;1.10;;;;;;;21.34;50.45;100298.17;2382260;74;50222;-80
2024/03/16 02:33:51;;;;;;;2.20;1.37;;;;;;;21.33;50.44;100298.41;2382220;74;50152;-81
2024/03/16 02:36:53;;;;;;;1.82;1.15;;;;;;;21.33;50.40;100302.44;2344168;74;51669;-80
2024/03/16 02:39:55;;;;;;;3.77;1.40;;;;;;;21.33;50.39;100305.14;2382181;74;50166;-80
2024/03/16 02:42:58;;;;;;;2.77;1.40;;;;;;;21.33;50.48;100306.48;2344599;74;50873;-82
2024/03/16 02:46:00;;;;;;;2.77;1.10;;;;;;;21.33;50.44;100300.57;2382509;74;52146;-80
2024/03/16 02:49:02;;;;;;;1.47;1.17;;;;;;;21.32;50.48;100302.94;2382758;74;50736;-80
2024/03/16 02:52:05;;;;;;;3.45;1.20;;;;;;;21.32;50.43;100308.31;2344792;74;49699;-80
2024/03/16 02:55:08;;;;;;;2.22;1.30;;;;;;;21.32;50.50;100306.97;2319004;74;50730;-80
2024/03/16 02:58:10;;;;;;;3.45;1.20;;;;;;;21.31;50.52;100302.64;2319025;74;51440;-82
2024/03/16 03:01:13;;;;;;;2.05;1.17;;;;;;;21.32;50.50;100312.36;2344621;74;49592;-80
2024/03/16 03:04:15;;;;;;;2.25;1.20;;;;;;;21.32;50.42;100309.66;2382387;74;52673;-81
2024/03/16 03:07:17;;;;;;;1.52;1.10;;;;;;;21.32;50.39;100309.66;2382147;73;51410;-81
2024/03/16 03:10:21;;;;;;;2.60;1.25;;;;;;;21.33;50.38;100314.55;2344827;73;52023;-81
2024/03/16 03:13:23;;;;;;;1.07;0.95;;;;;;;21.31;50.30;100311.53;2382141;74;50605;-80
2024/03/16 03:16:26;;;;;;;2.22;1.22;;;;;;;21.31;50.34;100317.44;2344328;74;50110;-80
2024/03/16 03:19:28;;;;;;;3.02;1.27;;;;;;;21.31;50.33;100310.71;2382020;73;51344;-81
2024/03/16 03:22:30;;;;;;;1.27;0.90;;;;;;;21.31;50.27;100311.53;2381960;74;50980;-81
2024/03/16 03:25:32;;;;;;;1.27;1.07;;;;;;;21.31;50.28;100312.06;2343981;74;51053;-81
2024/03/16 03:28:35;;;;;;;1.40;1.07;;;;;;;21.30;50.33;100313.11;2382105;74;51358;-81
2024/03/16 03:31:37;;;;;;;1.40;1.30;;;;;;;21.31;50.28;100314.75;2381870;74;51586;-82
2024/03/16 03:34:39;;;;;;;3.72;1.32;;;;;;;21.30;50.37;100315.80;2382244;74;52402;-80
2024/03/16 03:37:42;;;;;;;1.37;1.05;;;;;;;21.30;50.30;100311.77;2344915;74;51496;-81
2024/03/16 03:40:44;;;;;;;1.05;0.85;;;;;;;21.30;50.27;100318.48;2344567;74;51005;-82
2024/03/16 03:43:57;;;;;;;1.87;1.35;;;;;;;21.30;50.27;100330.59;2382515;73;50358;-81
2024/03/16 03:46:54;;;;;;;1.02;0.88;;;;;;;21.30;50.33;100327.91;2381135;74;22374;-81
2024/03/16 03:49:59;;;;;;;1.62;1.10;;;;;;;21.30;50.32;100327.91;2344289;74;50246;-82
2024/03/16 03:53:05;;;;;;;1.30;1.00;;;;;;;21.30;50.33;100329.25;2345535;74;22422;-81
2024/03/16 03:56:05;;;;;;;1.82;1.00;;;;;;;21.29;50.29;100327.05;2382097;74;23093;-81
2024/03/16 03:59:08;;;;;;;1.27;1.10;;;;;;;21.29;50.32;100324.89;2345008;74;51478;-80
2024/03/16 04:02:10;;;;;;;1.45;1.10;;;;;;;21.29;50.36;100329.75;2344564;74;51619;-80
2024/03/16 04:05:13;;;;;;;2.15;1.57;;;;;;;21.28;50.41;100325.41;2381975;74;50592;-80
2024/03/16 04:08:15;;;;;;;1.25;0.88;;;;;;;21.29;50.42;100330.27;2318088;74;52166;-81
2024/03/16 04:11:17;;;;;;;1.80;0.90;;;;;;;21.29;50.37;100330.27;2382289;74;50376;-81
2024/03/16 04:14:19;;;;;;;1.07;0.98;;;;;;;21.28;50.33;100322.72;2344220;74;49308;-80
2024/03/16 04:17:22;;;;;;;2.92;1.10;;;;;;;21.29;50.31;100325.71;2344340;74;50449;-81
2024/03/16 04:20:24;;;;;;;2.90;1.37;;;;;;;21.28;50.27;100328.10;2344764;74;50396;-80
2024/03/16 04:23:26;;;;;;;1.75;1.10;;;;;;;21.28;50.29;100330.80;2344776;74;50434;-79
2024/03/16 04:26:28;;;;;;;1.87;1.15;;;;;;;21.27;50.28;100335.87;2345701;74;50598;-79
2024/03/16 04:29:35;;;;;;;2.15;1.10;;;;;;;21.28;50.27;100340.73;2345174;74;52574;-79
2024/03/16 04:32:35;;;;;;;1.20;0.95;;;;;;;21.27;50.31;100336.38;2384165;71;22493;-79
2024/03/16 04:35:37;;;;;;;1.00;0.80;;;;;;;21.27;50.28;100341.27;2344650;74;51529;-80
2024/03/16 04:38:39;;;;;;;1.20;0.90;;;;;;;21.28;50.27;100346.13;2318600;74;50235;-79
2024/03/16 04:41:41;;;;;;;1.25;0.85;;;;;;;21.27;50.27;100336.38;2382716;74;51501;-79
2024/03/16 04:44:43;;;;;;;1.12;1.00;;;;;;;21.28;50.28;100338.87;2345312;74;51506;-80
2024/03/16 04:47:46;;;;;;;1.82;1.10;;;;;;;21.27;50.29;100343.10;2345419;74;50607;-81
2024/03/16 04:50:48;;;;;;;1.22;0.90;;;;;;;21.27;50.25;100342.61;2385029;73;50712;-79
2024/03/16 04:53:50;;;;;;;2.02;0.98;;;;;;;21.27;50.22;100348.48;2347188;74;49440;-79
2024/03/16 04:56:53;;;;;;;1.65;1.17;;;;;;;21.27;50.28;100345.80;2384931;73;51537;-79
2024/03/16 04:59:55;;;;;;;1.92;1.00;;;;;;;21.27;50.26;100347.14;2384692;73;50414;-80
2024/03/16 05:02:57;;;;;;;2.62;0.90;;;;;;;21.27;50.21;100351.17;2346994;74;51075;-80
2024/03/16 05:05:59;;;;;;;1.27;1.00;;;;;;;21.27;50.15;100360.10;2385190;74;50685;-80
2024/03/16 05:09:10;;;;;;;2.02;0.85;;;;;;;21.28;50.16;100359.58;2320442;73;50899;-79
2024/03/16 05:12:13;;;;;;;1.55;0.90;;;;;;;21.27;50.15;100357.90;2349147;74;50727;-80
2024/03/16 05:15:15;;;;;;;1.30;1.00;;;;;;;21.27;50.20;100353.86;2347835;74;51615;-80
2024/03/16 05:18:17;;;;;;;1.60;1.05;;;;;;;21.26;50.20;100350.35;2347771;74;50145;-80
2024/03/16 05:21:20;;;;;;;3.33;1.10;;;;;;;21.27;50.17;100352.52;2384530;74;51555;-79
2024/03/16 05:24:22;;;;;;;2.37;0.88;;;;;;;21.27;50.26;100359.25;2346991;74;50654;-80
2024/03/16 05:27:24;;;;;;;1.57;0.90;;;;;;;21.27;50.21;100357.41;2346832;74;51705;-80
2024/03/16 05:30:26;;;;;;;2.37;0.90;;;;;;;21.27;50.19;100350.68;2320944;74;50652;-80
2024/03/16 05:33:28;;;;;;;2.02;1.20;;;;;;;21.28;50.21;100352.84;2347008;74;51746;-80
2024/03/16 05:36:31;;;;;;;1.82;0.78;;;;;;;21.27;50.24;100358.75;2384754;73;50493;-80
2024/03/16 05:39:33;;;;;;;2.45;0.88;;;;;;;21.27;50.28;100363.28;2384612;73;51564;-80
2024/03/16 05:42:37;;;;;;;1.82;1.20;;;;;;;21.28;50.18;100364.95;2346683;74;51812;-79
2024/03/16 05:45:39;;;;;;;3.12;1.05;;;;;;;21.27;50.23;100362.79;2384838;74;50687;-81
2024/03/16 05:48:41;;;;;;;3.58;1.00;;;;;;;21.26;50.22;100361.12;2384744;73;51719;-81
2024/03/16 05:51:43;;;;;;;2.17;0.93;;;;;;;21.28;50.16;100367.65;2346231;74;50971;-80
2024/03/16 05:54:46;;;;;;;2.55;1.12;;;;;;;21.28;50.13;100367.65;2347003;74;51456;-81
2024/03/16 05:57:48;;;;;;;1.95;0.98;;;;;;;21.27;50.14;100369.52;2385451;73;50684;-80
2024/03/16 06:00:51;;;;;;;2.83;1.02;;;;;;;21.27;50.13;100370.86;2384454;74;50784;-78
2024/03/16 06:03:53;;;;;;;1.35;1.20;;;;;;;21.28;50.14;100370.34;2382840;74;50658;-79
2024/03/16 06:06:55;;;;;;;2.08;0.95;;;;;;;21.27;50.17;100372.70;2345968;74;52304;-79
2024/03/16 06:09:57;;;;;;;3.02;1.02;;;;;;;21.27;50.16;100381.62;2383435;74;51470;-79
2024/03/16 06:12:59;;;;;;;3.72;1.20;;;;;;;21.28;50.19;100377.89;2346128;74;50201;-79
2024/03/16 06:16:02;;;;;;;6.17;1.42;;;;;;;21.27;50.16;100380.77;2319246;74;49581;-78
2024/03/16 06:19:05;;;;;;;13.32;1.30;;;;;;;21.29;50.16;100385.44;2383892;74;51510;-78
2024/03/16 06:22:07;;;;;;;5.25;1.10;;;;;;;21.28;50.32;100388.66;2417312;72;51556;-79
2024/03/16 06:25:11;;;;;;;7.85;1.70;;;;;;;21.28;50.46;100387.83;2421783;71;51590;-79
2024/03/16 06:28:21;;;;;;;5.85;1.30;;;;;;;21.30;50.64;100389.80;2445825;72;50028;-79
2024/03/16 06:31:26;;;;;;;7.53;1.22;;;;;;;21.33;50.57;100396.64;2377685;72;22349;-79
2024/03/16 06:34:22;;;;;;;8.60;1.60;;;;;;;21.32;50.58;100394.44;2463456;72;22434;-79
2024/03/16 06:37:25;;;;;;;9.73;1.70;;;;;;;21.32;50.55;100385.02;2386681;73;51564;-78
2024/03/16 06:40:27;;;;;;;13.55;1.80;;;;;;;21.33;50.57;100397.45;2302985;76;51547;-79
2024/03/16 06:43:29;;;;;;;7.90;1.42;;;;;;;21.34;50.57;100400.97;2343883;74;51536;-79
2024/03/16 06:46:34;;;;;;;9.93;1.50;;;;;;;21.34;50.63;100406.36;2381307;74;51504;-79
2024/03/16 06:49:36;;;;;;;13.95;1.60;;;;;;;21.34;50.59;100415.25;2381662;74;50250;-78
2024/03/16 06:52:38;;;;;;;23.27;2.25;;;;;;;21.32;50.69;100411.93;2381502;74;50317;-77
2024/03/16 06:55:41;;;;;;;13.50;1.67;;;;;;;21.33;50.67;100416.30;2359593;72;50011;-79
2024/03/16 06:58:43;;;;;;;9.60;1.65;;;;;;;21.34;50.72;100427.36;2348348;72;50408;-79
2024/03/16 07:01:45;;;;;;;17.30;2.10;;;;;;;21.35;50.77;100425.00;2455917;72;50691;-80
2024/03/16 07:04:49;;;;;;;9.88;1.67;;;;;;;21.35;50.78;100430.88;2361227;74;51086;-80
2024/03/16 07:07:51;;;;;;;14.55;1.57;;;;;;;21.36;51.36;100427.98;2409558;72;50665;-79
2024/03/16 07:10:53;;;;;;;15.72;2.37;;;;;;;21.36;51.14;100435.24;2381238;73;50607;-79
2024/03/16 07:13:57;;;;;;;13.60;2.25;;;;;;;21.37;51.08;100428.28;2395873;73;22948;-79
2024/03/16 07:17:00;;;;;;;10.45;1.77;;;;;;;21.36;51.12;100437.41;2343343;74;51658;-79
2024/03/16 07:20:02;;;;;;;15.00;1.75;;;;;;;21.37;51.08;100443.09;2348321;73;51014;-81
2024/03/16 07:23:05;;;;;;;11.05;1.65;;;;;;;21.36;51.05;100447.35;2382464;74;51629;-80
2024/03/16 07:26:07;;;;;;;6.40;1.75;;;;;;;21.36;50.98;100455.42;2344631;74;50690;-81
2024/03/16 07:29:09;;;;;;;8.18;1.50;;;;;;;21.36;50.99;100455.42;2317134;74;51043;-80
2024/03/16 07:32:12;;;;;;;6.33;2.05;;;;;;;21.36;51.07;100458.12;2382411;74;50757;-80
2024/03/16 07:35:14;;;;;;;10.43;1.57;;;;;;;21.37;51.13;100458.42;2382238;74;50928;-79
2024/03/16 07:38:16;;;;;;;8.45;1.60;;;;;;;21.36;51.03;100458.94;2344286;74;49691;-80
2024/03/16 07:41:19;;;;;;;9.08;1.50;;;;;;;21.36;51.03;100456.25;2382187;74;50396;-78
2024/03/16 07:44:21;;;;;;;12.37;1.52;;;;;;;21.36;51.21;100462.16;2413263;73;50047;-78
2024/03/16 07:47:23;;;;;;;10.30;1.77;;;;;;;21.37;51.23;100458.42;2380998;73;49571;-80
2024/03/16 07:50:26;;;;;;;15.38;1.80;;;;;;;21.38;51.21;100468.17;2417896;73;50170;-79
2024/03/16 07:53:28;;;;;;;10.30;2.47;;;;;;;21.38;51.15;100466.33;2379794;73;50441;-78
2024/03/16 07:56:30;;;;;;;13.53;2.22;;;;;;;21.38;51.17;100466.82;2381521;73;50701;-79
2024/03/16 07:59:32;;;;;;;11.75;2.08;;;;;;;21.38;51.25;100461.44;2418365;73;51578;-80
2024/03/16 08:02:35;;;;;;;15.25;2.08;;;;;;;21.39;51.28;100467.97;2382154;73;50103;-78
2024/03/16 08:05:37;;;;;;;18.50;2.50;;;;;;;21.38;51.58;100469.52;2418252;73;51633;-77
2024/03/16 08:08:39;;;;;;;13.58;2.60;;;;;;;21.40;51.45;100471.00;2417972;73;50231;-77
2024/03/16 08:11:42;;;;;;;22.55;2.90;;;;;;;21.39;52.26;100469.32;2381529;73;51234;-77
2024/03/16 08:14:44;;;;;;;22.02;2.25;;;;;;;21.40;51.94;100473.69;2377596;73;50301;-78
2024/03/16 08:17:46;;;;;;;15.13;2.20;;;;;;;21.41;51.92;100470.47;2387084;73;50725;-79
2024/03/16 08:20:48;;;;;;;14.45;2.60;;;;;;;21.41;51.81;100473.16;2423327;73;51423;-79
2024/03/16 08:23:50;;;;;;;16.73;2.70;;;;;;;21.40;51.93;100475.03;2386024;73;50747;-79
2024/03/16 08:26:53;;;;;;;22.42;3.22;;;;;;;21.41;52.02;100477.20;2330120;73;52718;-80
2024/03/16 08:29:55;;;;;;;15.72;3.45;;;;;;;21.41;51.88;100477.20;2347758;74;50752;-79
2024/03/16 08:32:57;;;;;;;15.65;2.92;;;;;;;21.40;51.81;100476.38;2414479;73;51747;-80
2024/03/16 08:36:00;;;;;;;21.93;2.95;;;;;;;21.40;51.98;100471.00;2391125;73;50108;-78
2024/03/16 08:39:03;;;;;;;22.82;3.20;;;;;;;21.41;51.93;100473.98;2429363;71;51414;-79
2024/03/16 08:42:05;;;;;;;17.92;2.98;;;;;;;21.41;51.93;100475.86;2429449;73;50922;-80
2024/03/16 08:45:09;;;;;;;19.42;2.50;;;;;;;21.40;52.01;100473.69;2361151;73;51444;-81
2024/03/16 08:48:11;;;;;;;17.87;3.02;;;;;;;21.41;52.04;100477.20;2388199;73;50754;-80
2024/03/16 08:51:14;;;;;;;17.07;2.52;;;;;;;21.41;52.04;100478.02;2388366;73;52261;-78
2024/03/16 08:54:17;;;;;;;16.42;3.00;;;;;;;21.40;52.09;100477.73;2388701;73;51461;-79
2024/03/16 08:57:19;;;;;;;15.88;2.67;;;;;;;21.41;51.97;100483.93;2425071;73;51542;-80
2024/03/16 09:00:21;;;;;;;11.00;2.30;;;;;;;21.40;51.94;100487.15;2388318;73;51493;-79
2024/03/16 09:03:23;;;;;;;11.33;2.12;;;;;;;21.39;50.15;100498.92;2425355;73;51522;-80
2024/03/16 09:06:26;;;;;;;9.70;1.75;;;;;;;21.34;50.05;100492.48;2425603;73;50708;-80
2024/03/16 09:09:28;;;;;;;18.55;2.27;;;;;;;21.31;49.64;100479.73;2388808;73;51525;-80
2024/03/16 09:12:30;;;;;;;7.12;1.70;;;;;;;21.33;49.31;100490.31;2425468;73;51425;-81
2024/03/16 09:15:33;;;;;;;12.35;1.50;;;;;;;21.30;49.85;100491.55;2388472;73;50069;-82
2024/03/16 09:18:36;;;;;;;17.90;2.10;;;;;;;21.31;50.27;100491.84;2425599;73;51532;-79
2024/03/16 09:21:38;;;;;;;13.88;2.10;;;;;;;21.30;50.37;100482.13;2425539;73;50266;-80
2024/03/16 09:24:41;;;;;;;7.80;1.75;;;;;;;21.32;50.57;100487.28;2361293;73;50969;-79
2024/03/16 09:27:44;;;;;;;11.88;1.75;;;;;;;21.32;50.66;100488.63;2387733;73;50284;-81
2024/03/16 09:30:46;;;;;;;12.88;2.02;;;;;;;21.34;50.64;100493.30;2425353;73;50363;-80
2024/03/16 09:33:48;;;;;;;9.68;1.82;;;;;;;21.36;50.71;100503.88;2425593;73;50439;-81
2024/03/16 09:36:51;;;;;;;20.57;1.77;;;;;;;21.37;50.66;100502.30;2418551;73;50596;-82
2024/03/16 09:39:53;;;;;;;20.57;2.00;;;;;;;21.38;50.62;100507.20;2378296;73;51628;-80
2024/03/16 09:42:55;;;;;;;13.38;2.25;;;;;;;21.39;50.51;100501.63;2354000;73;50914;-81
2024/03/16 09:45:58;;;;;;;25.80;2.33;;;;;;;21.43;50.60;100508.27;2369957;72;50317;-82
2024/03/16 09:49:02;;;;;;;30.62;2.45;;;;;;;21.44;50.67;100496.45;2378195;74;49484;-81
2024/03/16 09:52:04;;;;;;;23.30;2.90;;;;;;;21.46;50.74;100498.42;2408831;72;22311;-81
2024/03/16 09:55:09;;;;;;;34.00;2.90;;;;;;;21.48;50.58;100504.96;2386121;73;50780;-81
2024/03/16 09:58:11;;;;;;;33.40;2.57;;;;;;;21.48;50.67;100499.58;2420192;73;50732;-81
2024/03/16 10:01:15;;;;;;;27.32;3.40;;;;;;;21.49;50.83;100499.35;2424656;73;50343;-81
2024/03/16 10:04:17;;;;;;;27.37;3.72;;;;;;;21.49;50.98;100498.01;2367535;73;51105;-81
2024/03/16 10:07:19;;;;;;;31.37;3.15;;;;;;;21.51;50.91;100501.33;2395785;73;51491;-81
2024/03/16 10:10:21;;;;;;;25.85;2.95;;;;;;;21.52;51.00;100492.20;2344473;74;51435;-79
2024/03/16 10:13:24;;;;;;;16.25;2.77;;;;;;;21.53;51.20;100496.58;2344350;74;51112;-80
2024/03/16 10:16:26;;;;;;;16.95;2.55;;;;;;;21.56;51.08;100498.55;2384366;73;50301;-80
2024/03/16 10:19:29;;;;;;;23.83;3.42;;;;;;;21.58;50.98;100491.06;2421038;73;50774;-81
2024/03/16 10:22:32;;;;;;;21.40;3.90;;;;;;;21.56;50.97;100493.98;2382142;74;50953;-81
2024/03/16 10:25:34;;;;;;;23.02;4.22;;;;;;;21.58;51.18;100495.11;2422485;72;50752;-81
2024/03/16 10:28:36;;;;;;;27.52;4.85;;;;;;;21.56;51.45;100496.67;2344057;74;52523;-81
2024/03/16 10:31:40;;;;;;;30.65;4.62;;;;;;;21.56;51.43;100497.20;2385408;73;50639;-81
2024/03/16 10:34:43;;;;;;;23.45;4.87;;;;;;;21.57;51.59;100511.78;2424652;73;51561;-83
2024/03/16 10:37:48;;;;;;;23.25;4.33;;;;;;;21.61;51.68;100527.85;2413231;73;50954;-81
2024/03/16 10:40:50;;;;;;;26.68;4.85;;;;;;;21.62;51.65;100539.45;2424609;73;51005;-83
2024/03/16 10:43:53;;;;;;;22.37;4.47;;;;;;;21.63;51.79;100536.56;2426345;72;51494;-83
2024/03/16 10:46:55;;;;;;;26.00;4.45;;;;;;;21.62;51.77;100535.41;2442164;72;51531;-83
2024/03/16 10:49:58;;;;;;;25.05;4.45;;;;;;;21.61;51.75;100535.11;2433097;72;50767;-84
2024/03/16 10:53:02;;;;;;;33.83;5.28;;;;;;;21.60;51.87;100544.20;2425162;73;51720;-83
2024/03/16 10:56:04;;;;;;;35.78;5.47;;;;;;;21.60;51.88;100540.16;2442447;72;22464;-82
2024/03/16 10:59:07;;;;;;;39.25;5.80;;;;;;;21.58;51.92;100546.27;2432690;72;51420;-83
2024/03/16 11:02:12;;;;;;;32.58;5.47;;;;;;;21.60;51.99;100550.41;2335357;73;50197;-84
2024/03/16 11:05:33;;;;;;;39.15;5.87;;;;;;;21.62;52.12;100544.83;2415830;73;50646;-83
2024/03/16 11:08:42;;;;;;;47.62;6.22;;;;;;;21.60;51.95;100544.20;2381347;73;50470;-82
2024/03/16 11:11:44;;;;;;;45.15;6.03;;;;;;;21.62;52.08;100547.00;2347598;73;50775;-85
2024/03/16 11:14:47;;;;;;;78.07;8.65;;;;;;;21.61;52.20;100556.65;2387081;73;50896;-84
2024/03/16 11:17:49;;;;;;;52.38;6.92;;;;;;;21.60;52.31;100548.23;2386546;73;50169;-85
2024/03/16 11:20:53;;;;;;;45.60;7.10;;;;;;;21.60;52.43;100559.83;2425236;73;51591;-84
2024/03/16 11:23:59;;;;;;;37.78;6.22;;;;;;;21.62;52.51;100558.30;2385497;73;51670;-85
2024/03/16 11:26:59;;;;;;;33.38;5.70;;;;;;;21.63;52.62;100554.55;2365528;74;22331;-84
2024/03/16 11:30:02;;;;;;;55.20;6.30;;;;;;;21.62;52.42;100548.87;2392189;73;51526;-84
2024/03/16 11:33:15;;;;;;;44.55;6.17;;;;;;;21.64;52.31;100556.23;2386082;73;50387;-83
2024/03/16 11:36:18;;;;;;;36.15;6.20;;;;;;;21.63;52.37;100556.75;2376427;73;50852;-84
2024/03/16 11:39:30;;;;;;;421.37;136.95;;;;;;;21.67;55.19;100561.20;2431380;72;51221;-84
2024/03/16 11:42:32;;;;;;;197.95;67.80;;;;;;;21.68;54.19;100565.53;2408035;72;51651;-85
2024/03/16 11:45:35;;;;;;;147.17;56.95;;;;;;;21.69;53.90;100566.69;2442969;72;51040;-84
2024/03/16 11:48:41;;;;;;;133.75;53.58;;;;;;;21.67;53.57;100570.62;2429015;72;50340;-84
2024/03/16 11:51:54;;;;;;;128.02;52.48;;;;;;;21.65;53.71;100578.89;2385270;72;50227;-84
2024/03/16 11:54:54;;;;;;;112.17;46.48;;;;;;;21.68;54.22;100581.20;2429368;72;22438;-85
2024/03/16 11:58:09;;;;;;;94.90;39.73;;;;;;;21.68;53.79;100587.94;2417132;73;51500;-82
2024/03/16 12:01:13;;;;;;;85.05;34.30;;;;;;;21.71;53.62;100604.20;2418177;73;22484;-83
2024/03/16 12:04:20;;;;;;;;;;;;;;;21.70;53.26;100602.52;2415832;73;50701;-82
2024/03/16 12:07:18;;;;;;;68.28;28.50;;;;;;;21.68;52.92;100598.70;2414239;73;22660;-81
2024/03/16 12:10:22;;;;;;;68.72;26.57;;;;;;;21.69;52.82;100604.92;2417948;73;50376;-80
2024/03/16 12:13:25;;;;;;;74.00;23.60;;;;;;;21.68;52.48;100614.01;2426299;72;50730;-82
2024/03/16 12:16:28;;;;;;;64.50;21.77;;;;;;;21.66;52.37;100609.38;2422197;73;50754;-81
2024/03/16 12:19:32;;;;;;;66.97;21.65;;;;;;;21.65;52.24;100617.94;2410587;72;50776;-81
2024/03/16 12:22:34;;;;;;;55.58;18.87;;;;;;;21.69;52.88;100618.38;2354671;73;50434;-80
2024/03/16 12:25:36;;;;;;;57.05;17.50;;;;;;;21.72;52.66;100624.70;2386890;72;49405;-80
2024/03/16 12:28:38;;;;;;;48.85;16.12;;;;;;;21.74;52.54;100622.64;2382062;73;50155;-79
2024/03/16 12:31:41;;;;;;;54.27;15.68;;;;;;;21.76;52.35;100635.39;2373101;73;50878;-80
2024/03/16 12:34:43;;;;;;;50.10;16.77;;;;;;;21.72;52.20;100635.47;2425514;73;50694;-80
2024/03/16 12:37:45;;;;;;;63.75;17.32;;;;;;;21.73;52.22;100638.46;2425365;72;50772;-80
2024/03/16 12:40:47;;;;;;;57.80;15.90;;;;;;;21.77;52.47;100649.16;2389094;73;52248;-80
2024/03/16 12:43:49;;;;;;;54.85;14.53;;;;;;;21.74;52.48;100650.39;2422915;73;51579;-80
2024/03/16 12:46:52;;;;;;;49.60;15.75;;;;;;;21.71;52.39;100657.54;2398267;72;51435;-80
2024/03/16 12:49:57;;;;;;;53.55;14.40;;;;;;;21.70;52.35;100664.46;2370671;73;49642;-81
2024/03/16 12:52:59;;;;;;;;;;;;;;;21.69;52.50;100665.51;2416774;73;50814;-81
2024/03/16 12:56:06;;;;;;;44.77;13.75;;;;;;;21.68;52.69;100674.60;2421981;73;51515;-81
2024/03/16 12:59:05;;;;;;;45.45;12.82;;;;;;;21.67;52.59;100684.55;2368583;73;22346;-80
2024/03/16 13:02:12;;;;;;;53.17;14.20;;;;;;;21.67;52.57;100686.42;2415957;73;51410;-80
2024/03/16 13:05:15;;;;;;;41.42;13.10;;;;;;;21.65;52.64;100688.48;2357886;73;22574;-81
2024/03/16 13:08:17;;;;;;;46.88;12.78;;;;;;;21.66;52.63;100702.27;2385598;73;50534;-79
2024/03/16 13:11:19;;;;;;;45.33;13.08;;;;;;;21.65;52.78;100706.80;2423517;73;51505;-81
2024/03/16 13:14:22;;;;;;;51.95;13.43;;;;;;;21.65;52.88;100717.58;2376664;73;50108;-81
2024/03/16 13:17:24;;;;;;;45.03;13.22;;;;;;;21.65;52.95;100718.92;2409646;72;50781;-82
2024/03/16 13:20:26;;;;;;;48.35;12.68;;;;;;;21.64;52.90;100731.27;2421991;72;51512;-81
2024/03/16 13:23:28;;;;;;;45.20;12.20;;;;;;;21.67;52.88;100727.64;2339896;74;49688;-82
2024/03/16 13:26:31;;;;;;;44.40;11.85;;;;;;;21.68;52.77;100736.54;2402063;73;50556;-81
2024/03/16 13:29:33;;;;;;;59.70;13.43;;;;;;;21.67;52.71;100737.58;2401275;73;50218;-82
2024/03/16 13:32:36;;;;;;;50.67;12.43;;;;;;;21.69;52.72;100741.73;2403379;73;50743;-79
2024/03/16 13:35:42;;;;;;;51.48;13.38;;;;;;;21.69;52.79;100744.95;2408720;73;50650;-80
2024/03/16 13:38:44;;;;;;;61.55;12.95;;;;;;;21.73;53.29;100742.16;2362731;74;51012;-79
2024/03/16 13:41:46;;;;;;;62.90;12.13;;;;;;;21.75;53.47;100763.81;2340014;73;51723;-78
2024/03/16 13:44:51;;;;;;;61.98;12.35;;;;;;;21.74;53.32;100769.42;2425102;73;51530;-79
2024/03/16 13:47:56;;;;;;;67.27;13.35;;;;;;;21.74;53.91;100770.77;2347435;74;22377;-79
2024/03/16 13:50:59;;;;;;;59.55;12.43;;;;;;;21.73;54.18;100780.72;2398853;73;54654;-81
2024/03/16 13:54:01;;;;;;;54.05;12.55;;;;;;;21.73;54.05;100787.94;2382288;74;50785;-80
2024/03/16 13:57:04;;;;;;;69.65;12.28;;;;;;;21.72;54.10;100799.75;2382244;74;51487;-80
2024/03/16 14:00:07;;;;;;;64.35;13.05;;;;;;;21.70;54.24;100804.50;2382348;74;50411;-80
2024/03/16 14:03:09;;;;;;;54.80;11.48;;;;;;;21.71;53.98;100812.39;2372386;73;50652;-81